Time;durP1;ratioP1;P1;durP2;ratioP2;P2;SDS_P1;SDS_P2;PMS_P1;PMS_P2;Temp;Humidity;BMP_temperature;BMP_pressure;BME280_temperature;BME280_humidity;BME280_pressure;Samples;Min_cycle;Max_cycle;Signal;HPM_P1;HPM_P2
2021/12/28 00:01:00;;;;;;;13.93;12.23;;;;;;;;;;2055693;28;20170;-55
2021/12/28 00:02:00;;;;;;;15.65;12.75;;;;;;;;;;2056026;28;20178;-56
2021/12/28 00:03:01;;;;;;;15.60;13.35;;;;;;;;;;2064545;28;20228;-58
2021/12/28 00:04:01;;;;;;;14.50;12.18;;;;;;;;;;2063823;28;20178;-57
2021/12/28 00:05:01;;;;;;;13.35;11.93;;;;;;;;;;2064815;28;20169;-56
2021/12/28 00:06:02;;;;;;;13.25;11.95;;;;;;;;;;2065117;28;20172;-57
2021/12/28 00:07:02;;;;;;;13.40;12.05;;;;;;;;;;2065136;28;20173;-57
2021/12/28 00:08:03;;;;;;;13.60;12.23;;;;;;;;;;2060905;28;20209;-55
2021/12/28 00:09:03;;;;;;;13.55;12.00;;;;;;;;;;2057077;28;20189;-58
2021/12/28 00:10:05;;;;;;;12.65;11.45;;;;;;;;;;2057131;28;20186;-58
2021/12/28 00:11:06;;;;;;;14.23;12.73;;;;;;;;;;2056991;28;20209;-56
2021/12/28 00:12:07;;;;;;;14.25;12.32;;;;;;;;;;2058001;28;20181;-60
2021/12/28 00:13:07;;;;;;;13.38;11.98;;;;;;;;;;2048220;28;20636;-57
2021/12/28 00:14:07;;;;;;;13.98;12.50;;;;;;;;;;2048102;28;20636;-56
2021/12/28 00:15:31;;;;;;;13.35;11.75;;;;;;;;;;2056842;28;20306;-56
2021/12/28 00:17:58;;;;;;;11.60;10.52;;;;;;;;;;2057335;28;20166;-56
2021/12/28 00:17:59;;;;;;;12.45;11.07;;;;;;;;;;2062999;28;20232;-57
2021/12/28 00:19:00;;;;;;;14.15;12.65;;;;;;;;;;2065011;28;20165;-55
2021/12/28 00:20:00;;;;;;;12.30;11.10;;;;;;;;;;2064748;28;20181;-58
2021/12/28 00:21:02;;;;;;;15.38;12.68;;;;;;;;;;2056432;28;20209;-59
2021/12/28 00:22:02;;;;;;;14.23;11.88;;;;;;;;;;2050093;28;20170;-58
2021/12/28 00:23:05;;;;;;;12.77;11.52;;;;;;;;;;2061261;28;20186;-59
2021/12/28 00:24:05;;;;;;;14.10;12.60;;;;;;;;;;2064457;28;20186;-57
2021/12/28 00:25:06;;;;;;;12.83;11.53;;;;;;;;;;2065506;28;20177;-57
2021/12/28 00:26:08;;;;;;;12.98;11.52;;;;;;;;;;2065600;28;20165;-57
2021/12/28 00:27:08;;;;;;;13.63;12.30;;;;;;;;;;2065528;28;20233;-54
2021/12/28 00:28:09;;;;;;;12.82;11.57;;;;;;;;;;2055128;28;20208;-58
2021/12/28 00:29:09;;;;;;;13.00;11.75;;;;;;;;;;2055639;28;20170;-58
2021/12/28 00:30:10;;;;;;;13.70;12.30;;;;;;;;;;2047977;29;20734;-57
2021/12/28 00:31:13;;;;;;;14.07;12.68;;;;;;;;;;2050850;28;20594;-59
2021/12/28 00:32:13;;;;;;;13.70;12.30;;;;;;;;;;2057361;28;20178;-57
2021/12/28 00:33:14;;;;;;;14.25;12.23;;;;;;;;;;2064304;28;20258;-55
2021/12/28 00:34:14;;;;;;;13.88;12.48;;;;;;;;;;2053649;28;20206;-51
2021/12/28 00:35:14;;;;;;;13.98;12.45;;;;;;;;;;2063503;28;20584;-57
2021/12/28 00:36:15;;;;;;;12.48;11.18;;;;;;;;;;2059993;28;20221;-57
2021/12/28 00:37:15;;;;;;;13.52;12.23;;;;;;;;;;2064149;28;20232;-55
2021/12/28 00:38:18;;;;;;;13.27;11.93;;;;;;;;;;2059935;28;20197;-59
2021/12/28 00:39:19;;;;;;;13.55;12.15;;;;;;;;;;2064281;28;20173;-58
2021/12/28 00:40:19;;;;;;;13.70;12.18;;;;;;;;;;2064362;28;20177;-59
2021/12/28 00:41:20;;;;;;;14.88;12.63;;;;;;;;;;2063852;28;20212;-58
2021/12/28 00:42:20;;;;;;;12.93;11.68;;;;;;;;;;2064119;28;20182;-60
2021/12/28 00:43:21;;;;;;;15.20;12.48;;;;;;;;;;2063749;28;20828;-59
2021/12/28 00:44:21;;;;;;;13.45;12.05;;;;;;;;;;2059122;28;20181;-60
2021/12/28 00:45:21;;;;;;;13.02;11.60;;;;;;;;;;2063453;28;20192;-54
2021/12/28 00:46:22;;;;;;;13.10;11.68;;;;;;;;;;2064150;28;20177;-58
2021/12/28 00:47:22;;;;;;;14.43;12.70;;;;;;;;;;2063857;28;20166;-57
2021/12/28 00:48:22;;;;;;;13.13;11.82;;;;;;;;;;2064547;28;20637;-56
2021/12/28 00:49:23;;;;;;;14.25;12.05;;;;;;;;;;2065359;28;20324;-62
2021/12/28 00:50:23;;;;;;;12.25;10.93;;;;;;;;;;2065510;28;20253;-57
2021/12/28 00:51:24;;;;;;;14.65;12.23;;;;;;;;;;2059905;28;20220;-63
2021/12/28 00:52:24;;;;;;;14.70;12.90;;;;;;;;;;2062634;28;20566;-57
2021/12/28 00:53:25;;;;;;;17.25;12.82;;;;;;;;;;2054776;28;20273;-51
2021/12/28 00:54:25;;;;;;;14.00;12.52;;;;;;;;;;2057211;28;20229;-56
2021/12/28 00:55:25;;;;;;;14.93;13.38;;;;;;;;;;2065421;28;20197;-57
2021/12/28 00:56:25;;;;;;;15.43;12.73;;;;;;;;;;2065613;28;20193;-58
2021/12/28 00:57:26;;;;;;;13.88;12.35;;;;;;;;;;2065207;28;20235;-55
2021/12/28 00:58:26;;;;;;;14.45;12.95;;;;;;;;;;2065721;28;20673;-57
2021/12/28 00:59:26;;;;;;;15.00;13.45;;;;;;;;;;2066081;28;20670;-54
2021/12/28 01:00:28;;;;;;;14.68;13.13;;;;;;;;;;2065177;28;20178;-59
2021/12/28 01:01:28;;;;;;;16.08;13.25;;;;;;;;;;2062284;28;20600;-58
2021/12/28 01:02:28;;;;;;;15.67;13.13;;;;;;;;;;2058242;28;20213;-59
2021/12/28 01:03:28;;;;;;;14.95;12.90;;;;;;;;;;2059963;28;20193;-57
2021/12/28 01:04:29;;;;;;;16.63;13.55;;;;;;;;;;2065273;28;20236;-56
2021/12/28 01:05:29;;;;;;;15.57;13.70;;;;;;;;;;2058328;28;20528;-58
2021/12/28 01:06:29;;;;;;;17.52;13.15;;;;;;;;;;2065267;28;20181;-56
2021/12/28 01:07:30;;;;;;;15.00;13.00;;;;;;;;;;2065291;28;20258;-58
2021/12/28 01:08:30;;;;;;;14.75;13.25;;;;;;;;;;2065594;28;20221;-58
2021/12/28 01:09:31;;;;;;;14.38;12.88;;;;;;;;;;2065418;28;20214;-58
2021/12/28 01:10:34;;;;;;;16.38;14.57;;;;;;;;;;2065395;28;20227;-58
2021/12/28 01:11:34;;;;;;;17.00;15.23;;;;;;;;;;2056104;28;20193;-60
2021/12/28 01:12:35;;;;;;;19.02;16.05;;;;;;;;;;2056759;28;20190;-55
2021/12/28 01:13:35;;;;;;;15.47;13.67;;;;;;;;;;2064212;28;20173;-54
2021/12/28 01:14:35;;;;;;;15.48;13.88;;;;;;;;;;2065567;28;20185;-57
2021/12/28 01:15:36;;;;;;;15.95;14.32;;;;;;;;;;2065108;28;20212;-57
2021/12/28 01:16:36;;;;;;;15.43;13.18;;;;;;;;;;2065484;28;20252;-57
2021/12/28 01:17:37;;;;;;;18.15;13.88;;;;;;;;;;2062720;28;20647;-60
2021/12/28 01:18:37;;;;;;;17.10;13.98;;;;;;;;;;2061621;28;20188;-60
2021/12/28 01:19:38;;;;;;;17.38;13.93;;;;;;;;;;2057709;28;20658;-59
2021/12/28 01:20:39;;;;;;;26.33;23.15;;;;;;;;;;2049129;29;20785;-59
2021/12/28 01:21:39;;;;;;;19.83;16.97;;;;;;;;;;2057713;28;20217;-58
2021/12/28 01:22:40;;;;;;;17.23;15.43;;;;;;;;;;2061364;28;20165;-58
2021/12/28 01:23:40;;;;;;;15.15;13.30;;;;;;;;;;2064757;28;20669;-59
2021/12/28 01:24:40;;;;;;;15.65;13.50;;;;;;;;;;2061973;28;20177;-59
2021/12/28 01:25:41;;;;;;;15.90;14.30;;;;;;;;;;2065811;28;20630;-53
2021/12/28 01:26:41;;;;;;;17.08;15.27;;;;;;;;;;2065565;28;20173;-58
2021/12/28 01:27:41;;;;;;;14.55;13.07;;;;;;;;;;2063149;28;20546;-55
2021/12/28 01:28:41;;;;;;;17.95;15.30;;;;;;;;;;2062091;28;20693;-58
2021/12/28 01:29:42;;;;;;;17.30;14.88;;;;;;;;;;2065915;28;20267;-56
2021/12/28 01:30:42;;;;;;;15.77;13.90;;;;;;;;;;2065690;28;20161;-57
2021/12/28 01:31:42;;;;;;;15.88;12.70;;;;;;;;;;2064505;28;20233;-56
2021/12/28 01:32:43;;;;;;;13.85;12.32;;;;;;;;;;2065082;28;20253;-54
2021/12/28 01:33:43;;;;;;;15.43;13.77;;;;;;;;;;2057900;28;20183;-58
2021/12/28 01:34:44;;;;;;;15.88;12.43;;;;;;;;;;2057160;28;20190;-58
2021/12/28 01:35:44;;;;;;;15.02;13.40;;;;;;;;;;2066097;28;20169;-57
2021/12/28 01:36:45;;;;;;;14.18;12.68;;;;;;;;;;2065574;28;20185;-56
2021/12/28 01:37:46;;;;;;;14.02;12.63;;;;;;;;;;2064134;28;20178;-57
2021/12/28 01:38:47;;;;;;;15.17;13.57;;;;;;;;;;2062320;28;20609;-55
2021/12/28 01:39:47;;;;;;;15.80;14.13;;;;;;;;;;2065312;28;20267;-58
2021/12/28 01:40:47;;;;;;;13.98;12.50;;;;;;;;;;2065773;28;20620;-57
2021/12/28 01:41:47;;;;;;;15.32;13.70;;;;;;;;;;2058247;28;20682;-59
2021/12/28 01:42:54;;;;;;;14.77;13.25;;;;;;;;;;2055860;28;20236;-56
2021/12/28 01:43:58;;;;;;;15.40;13.25;;;;;;;;;;2065150;28;20170;-57
2021/12/28 01:44:58;;;;;;;15.10;13.10;;;;;;;;;;2065347;28;20195;-53
2021/12/28 01:46:02;;;;;;;14.75;13.25;;;;;;;;;;2058223;28;20202;-58
2021/12/28 01:47:03;;;;;;;14.07;12.60;;;;;;;;;;2064636;28;20191;-58
2021/12/28 01:48:04;;;;;;;15.27;12.73;;;;;;;;;;2064825;28;20177;-57
2021/12/28 01:49:05;;;;;;;15.82;13.88;;;;;;;;;;2065248;28;20185;-58
2021/12/28 01:50:05;;;;;;;15.50;13.05;;;;;;;;;;2060877;28;20178;-59
2021/12/28 01:51:12;;;;;;;12.23;11.00;;;;;;;;;;2056449;28;20237;-60
2021/12/28 01:52:13;;;;;;;14.48;12.85;;;;;;;;;;2055094;28;20186;-56
2021/12/28 01:53:13;;;;;;;13.77;12.38;;;;;;;;;;2065524;28;20170;-57
2021/12/28 01:54:14;;;;;;;12.55;11.30;;;;;;;;;;2060888;28;20206;-57
2021/12/28 01:55:14;;;;;;;14.07;12.57;;;;;;;;;;2064920;28;20212;-58
2021/12/28 01:56:16;;;;;;;13.73;12.27;;;;;;;;;;2064276;28;20228;-59
2021/12/28 01:57:18;;;;;;;13.85;12.25;;;;;;;;;;2064867;28;20271;-59
2021/12/28 01:58:18;;;;;;;14.97;12.03;;;;;;;;;;2064498;28;20200;-59
2021/12/28 01:59:20;;;;;;;13.10;11.77;;;;;;;;;;2064358;28;20182;-59
2021/12/28 02:00:20;;;;;;;12.90;11.70;;;;;;;;;;2065356;28;20198;-55
2021/12/28 02:01:22;;;;;;;12.75;11.45;;;;;;;;;;2053935;28;20203;-59
2021/12/28 02:02:22;;;;;;;12.15;10.82;;;;;;;;;;2055115;28;20284;-58
2021/12/28 02:03:23;;;;;;;12.45;11.27;;;;;;;;;;2065177;28;20206;-57
2021/12/28 02:04:24;;;;;;;13.65;12.18;;;;;;;;;;2064192;28;20698;-57
2021/12/28 02:05:24;;;;;;;13.43;12.13;;;;;;;;;;2064504;28;20174;-60
2021/12/28 02:06:25;;;;;;;12.02;10.88;;;;;;;;;;2065033;28;20268;-55
2021/12/28 02:07:25;;;;;;;13.10;11.20;;;;;;;;;;2065794;28;20200;-59
2021/12/28 02:08:26;;;;;;;12.77;11.50;;;;;;;;;;2059610;28;20202;-58
2021/12/28 02:09:29;;;;;;;12.75;11.55;;;;;;;;;;2063369;28;20245;-61
2021/12/28 02:10:29;;;;;;;12.05;10.63;;;;;;;;;;2059623;28;20263;-58
2021/12/28 02:11:30;;;;;;;13.20;11.90;;;;;;;;;;2058698;28;20170;-59
2021/12/28 02:12:30;;;;;;;11.57;10.38;;;;;;;;;;2045901;29;20205;-59
2021/12/28 02:13:31;;;;;;;13.13;11.82;;;;;;;;;;2055175;28;20179;-56
2021/12/28 02:14:31;;;;;;;12.02;10.65;;;;;;;;;;2062629;28;20169;-58
2021/12/28 02:15:31;;;;;;;12.82;11.57;;;;;;;;;;2062659;28;20688;-60
2021/12/28 02:16:32;;;;;;;11.68;10.57;;;;;;;;;;2062713;28;20180;-58
2021/12/28 02:17:33;;;;;;;12.57;11.32;;;;;;;;;;2063985;28;20178;-58
2021/12/28 02:18:34;;;;;;;12.23;11.00;;;;;;;;;;2063221;28;20273;-58
2021/12/28 02:19:35;;;;;;;11.38;10.35;;;;;;;;;;2065139;28;20161;-58
2021/12/28 02:20:35;;;;;;;11.88;10.85;;;;;;;;;;2061580;28;20366;-52
2021/12/28 02:21:36;;;;;;;11.52;10.43;;;;;;;;;;2065174;28;20788;-53
2021/12/28 02:22:36;;;;;;;12.27;11.10;;;;;;;;;;2063033;28;20657;-59
2021/12/28 02:23:36;;;;;;;11.52;10.32;;;;;;;;;;2060857;28;20178;-55
2021/12/28 02:24:37;;;;;;;12.17;11.17;;;;;;;;;;2060619;28;20181;-59
2021/12/28 02:25:37;;;;;;;11.57;10.52;;;;;;;;;;2065036;28;20188;-54
2021/12/28 02:26:38;;;;;;;11.23;10.13;;;;;;;;;;2064903;28;20232;-56
2021/12/28 02:27:38;;;;;;;12.23;10.98;;;;;;;;;;2064017;28;20181;-58
2021/12/28 02:28:38;;;;;;;11.55;10.55;;;;;;;;;;2060655;28;20245;-57
2021/12/28 02:29:38;;;;;;;11.85;10.80;;;;;;;;;;2061113;28;20208;-59
2021/12/28 02:30:40;;;;;;;11.63;10.52;;;;;;;;;;2061397;28;20178;-61
2021/12/28 02:31:40;;;;;;;12.27;11.07;;;;;;;;;;2053144;28;20193;-59
2021/12/28 02:32:41;;;;;;;11.45;10.25;;;;;;;;;;2056215;28;20323;-56
2021/12/28 02:33:42;;;;;;;11.70;10.60;;;;;;;;;;2064645;28;20842;-53
2021/12/28 02:34:45;;;;;;;11.23;10.20;;;;;;;;;;2062333;28;20232;-57
2021/12/28 02:35:45;;;;;;;11.85;10.65;;;;;;;;;;2059382;28;20256;-58
2021/12/28 02:36:45;;;;;;;13.00;11.73;;;;;;;;;;2056149;28;20184;-55
2021/12/28 02:37:46;;;;;;;11.30;9.90;;;;;;;;;;2083225;23;20166;-60
2021/12/28 02:38:46;;;;;;;10.73;9.63;;;;;;;;;;2082318;28;20629;-58
2021/12/28 02:39:47;;;;;;;11.82;10.43;;;;;;;;;;2082338;28;20252;-59
2021/12/28 02:40:47;;;;;;;11.32;10.23;;;;;;;;;;2080053;28;20519;-59
2021/12/28 02:41:47;;;;;;;11.18;10.07;;;;;;;;;;2070510;28;20222;-59
2021/12/28 02:42:48;;;;;;;11.15;10.10;;;;;;;;;;2073066;28;20661;-57
2021/12/28 02:43:49;;;;;;;11.68;10.57;;;;;;;;;;2081762;28;20208;-59
2021/12/28 02:44:57;;;;;;;10.88;9.85;;;;;;;;;;2073170;28;20177;-61
2021/12/28 02:45:59;;;;;;;10.60;9.60;;;;;;;;;;2073350;28;20212;-58
2021/12/28 02:46:59;;;;;;;11.10;9.40;;;;;;;;;;2081619;28;20179;-57
2021/12/28 02:48:01;;;;;;;11.00;9.90;;;;;;;;;;2084142;28;20267;-59
2021/12/28 02:49:02;;;;;;;10.20;9.13;;;;;;;;;;2078654;28;20259;-61
2021/12/28 02:50:04;;;;;;;10.65;9.55;;;;;;;;;;2081343;28;20207;-58
2021/12/28 02:51:06;;;;;;;10.18;9.27;;;;;;;;;;2082133;28;20566;-59
2021/12/28 02:52:09;;;;;;;10.52;9.43;;;;;;;;;;2076711;28;20184;-58
2021/12/28 02:53:10;;;;;;;11.15;9.40;;;;;;;;;;2081819;28;20211;-57
2021/12/28 02:54:11;;;;;;;10.80;9.70;;;;;;;;;;2081584;28;20176;-57
2021/12/28 02:55:12;;;;;;;11.98;10.82;;;;;;;;;;2082128;28;20558;-58
2021/12/28 02:56:14;;;;;;;11.90;10.57;;;;;;;;;;2081913;28;20187;-57
2021/12/28 02:57:14;;;;;;;11.88;10.45;;;;;;;;;;2081855;28;20645;-59
2021/12/28 02:58:35;;;;;;;11.65;10.45;;;;;;;;;;2079239;28;20204;-59
2021/12/28 02:59:43;;;;;;;11.65;10.45;;;;;;;;;;2075626;28;20677;-59
2021/12/28 03:00:46;;;;;;;11.93;10.17;;;;;;;;;;2078859;28;20218;-59
2021/12/28 03:01:46;;;;;;;11.18;9.98;;;;;;;;;;2081898;28;20667;-58
2021/12/28 03:02:46;;;;;;;11.20;10.02;;;;;;;;;;2079841;28;20184;-59
2021/12/28 03:03:48;;;;;;;10.95;9.82;;;;;;;;;;2073317;28;20634;-58
2021/12/28 03:04:48;;;;;;;10.90;9.80;;;;;;;;;;2072880;28;20692;-60
2021/12/28 03:05:50;;;;;;;13.55;9.70;;;;;;;;;;2063346;28;20182;-59
2021/12/28 03:06:50;;;;;;;11.57;10.37;;;;;;;;;;2063564;28;20255;-58
2021/12/28 03:07:51;;;;;;;11.00;9.75;;;;;;;;;;2073159;28;20251;-60
2021/12/28 03:08:53;;;;;;;11.88;10.63;;;;;;;;;;2077630;28;20206;-59
2021/12/28 03:09:53;;;;;;;11.70;10.30;;;;;;;;;;2079567;28;20200;-60
2021/12/28 03:10:54;;;;;;;12.07;10.73;;;;;;;;;;2080901;28;20251;-57
2021/12/28 03:11:55;;;;;;;13.70;10.77;;;;;;;;;;2080722;28;20234;-57
2021/12/28 03:12:55;;;;;;;12.40;11.20;;;;;;;;;;2072373;28;20165;-63
2021/12/28 03:13:57;;;;;;;12.70;10.77;;;;;;;;;;2071338;28;20181;-59
2021/12/28 03:14:57;;;;;;;12.07;10.77;;;;;;;;;;2081932;28;20172;-62
2021/12/28 03:15:58;;;;;;;12.60;10.77;;;;;;;;;;2081285;28;20691;-58
2021/12/28 03:16:58;;;;;;;12.02;10.32;;;;;;;;;;2081561;28;20586;-59
2021/12/28 03:17:59;;;;;;;13.13;10.83;;;;;;;;;;2078569;28;20210;-60
2021/12/28 03:19:00;;;;;;;11.37;10.13;;;;;;;;;;2080193;28;20178;-59
2021/12/28 03:20:00;;;;;;;13.57;11.00;;;;;;;;;;2081002;28;20267;-58
2021/12/28 03:21:01;;;;;;;12.20;10.57;;;;;;;;;;2072345;28;20188;-59
2021/12/28 03:22:01;;;;;;;12.17;10.97;;;;;;;;;;2072662;28;20185;-57
2021/12/28 03:23:02;;;;;;;11.03;9.93;;;;;;;;;;2077828;28;20537;-60
2021/12/28 03:24:03;;;;;;;10.75;9.65;;;;;;;;;;2072997;28;20177;-59
2021/12/28 03:25:04;;;;;;;12.73;11.43;;;;;;;;;;2079098;28;20204;-58
2021/12/28 03:26:05;;;;;;;11.45;10.20;;;;;;;;;;2082601;28;20323;-58
2021/12/28 03:27:05;;;;;;;10.20;8.93;;;;;;;;;;2074112;28;20177;-59
2021/12/28 03:28:06;;;;;;;12.05;9.93;;;;;;;;;;2073464;28;20216;-60
2021/12/28 03:29:06;;;;;;;12.00;10.52;;;;;;;;;;2082411;28;20177;-60
2021/12/28 03:30:08;;;;;;;13.83;10.00;;;;;;;;;;2081921;28;20172;-61
2021/12/28 03:31:10;;;;;;;10.67;9.57;;;;;;;;;;2081835;28;20172;-60
2021/12/28 03:32:10;;;;;;;11.45;10.25;;;;;;;;;;2082339;28;20372;-60
2021/12/28 03:33:10;;;;;;;11.05;10.05;;;;;;;;;;2082881;28;20193;-65
2021/12/28 03:34:11;;;;;;;12.07;9.82;;;;;;;;;;2073151;28;20173;-60
2021/12/28 03:35:12;;;;;;;11.80;10.20;;;;;;;;;;2075062;28;20179;-59
2021/12/28 03:36:13;;;;;;;11.37;10.17;;;;;;;;;;2084309;28;20507;-60
2021/12/28 03:37:14;;;;;;;12.10;10.48;;;;;;;;;;2083376;28;20187;-60
2021/12/28 03:38:14;;;;;;;10.87;9.77;;;;;;;;;;2082174;28;20195;-59
2021/12/28 03:39:14;;;;;;;10.67;9.60;;;;;;;;;;2082824;28;20251;-59
2021/12/28 03:40:15;;;;;;;11.03;9.87;;;;;;;;;;2083114;28;20668;-58
2021/12/28 03:41:17;;;;;;;10.53;9.43;;;;;;;;;;2084197;28;20175;-60
2021/12/28 03:42:17;;;;;;;11.10;10.10;;;;;;;;;;2082939;28;20291;-59
2021/12/28 03:43:18;;;;;;;10.98;9.45;;;;;;;;;;2082411;28;20184;-59
2021/12/28 03:44:18;;;;;;;11.00;9.33;;;;;;;;;;2081776;28;20176;-60
2021/12/28 03:45:19;;;;;;;9.77;8.88;;;;;;;;;;2082465;28;20181;-60
2021/12/28 03:46:20;;;;;;;11.87;9.17;;;;;;;;;;2082219;28;20164;-60
2021/12/28 03:47:20;;;;;;;10.37;9.20;;;;;;;;;;2074874;28;20195;-61
2021/12/28 03:48:20;;;;;;;10.50;9.40;;;;;;;;;;2075529;28;20200;-59
2021/12/28 03:49:20;;;;;;;12.37;9.47;;;;;;;;;;2078308;28;20181;-59
2021/12/28 03:50:25;;;;;;;11.03;9.40;;;;;;;;;;2073663;28;20192;-60
2021/12/28 03:51:25;;;;;;;11.87;10.37;;;;;;;;;;2074522;28;20271;-63
2021/12/28 03:52:26;;;;;;;11.93;9.60;;;;;;;;;;2074132;28;20204;-60
2021/12/28 03:53:27;;;;;;;13.63;10.03;;;;;;;;;;2082037;28;20172;-60
2021/12/28 03:54:27;;;;;;;11.57;9.97;;;;;;;;;;2073435;28;20608;-60
2021/12/28 03:55:28;;;;;;;12.13;9.90;;;;;;;;;;2074010;28;20181;-58
2021/12/28 03:56:28;;;;;;;12.83;10.27;;;;;;;;;;2082270;28;20281;-58
2021/12/28 03:57:28;;;;;;;12.83;10.40;;;;;;;;;;2082752;28;20190;-58
2021/12/28 03:58:28;;;;;;;12.23;10.50;;;;;;;;;;2084348;28;20164;-60
2021/12/28 03:59:29;;;;;;;11.80;10.10;;;;;;;;;;2083482;28;20176;-58
2021/12/28 04:00:32;;;;;;;11.93;9.87;;;;;;;;;;2083795;28;20768;-61
2021/12/28 04:01:33;;;;;;;12.53;9.77;;;;;;;;;;2079129;28;20230;-58
2021/12/28 04:02:33;;;;;;;12.90;10.87;;;;;;;;;;2083606;28;20222;-58
2021/12/28 04:03:33;;;;;;;11.37;10.27;;;;;;;;;;2083961;28;20203;-60
2021/12/28 04:04:34;;;;;;;11.87;9.43;;;;;;;;;;2082327;28;20263;-57
2021/12/28 04:05:34;;;;;;;12.93;10.87;;;;;;;;;;2079165;28;20174;-56
2021/12/28 04:06:35;;;;;;;12.77;10.20;;;;;;;;;;2082783;28;20181;-58
2021/12/28 04:07:35;;;;;;;12.83;10.37;;;;;;;;;;2081839;28;20172;-56
2021/12/28 04:08:37;;;;;;;10.93;9.93;;;;;;;;;;2081119;28;20676;-60
2021/12/28 04:10:54;;;;;;;12.60;9.07;;;;;;;;;;2074175;28;20161;-58
2021/12/28 04:11:54;;;;;;;10.50;9.40;;;;;;;;;;2080642;28;20529;-58
2021/12/28 04:12:55;;;;;;;10.83;9.70;;;;;;;;;;2072641;28;20204;-60
2021/12/28 04:13:57;;;;;;;11.67;9.63;;;;;;;;;;2071749;28;20320;-58
2021/12/28 04:14:58;;;;;;;12.03;10.30;;;;;;;;;;2074984;28;20196;-61
2021/12/28 04:15:58;;;;;;;10.20;9.17;;;;;;;;;;2077413;28;20172;-60
2021/12/28 04:16:58;;;;;;;11.40;9.27;;;;;;;;;;2085598;28;20222;-59
2021/12/28 04:17:59;;;;;;;11.43;9.30;;;;;;;;;;2085054;28;20196;-60
2021/12/28 04:18:59;;;;;;;11.70;9.90;;;;;;;;;;2072857;28;20192;-57
2021/12/28 04:20:00;;;;;;;11.17;9.97;;;;;;;;;;2072609;28;20263;-57
2021/12/28 04:21:00;;;;;;;11.07;9.10;;;;;;;;;;2080863;28;20204;-59
2021/12/28 04:22:00;;;;;;;12.03;10.53;;;;;;;;;;2064495;28;20558;-58
2021/12/28 04:23:00;;;;;;;13.03;9.53;;;;;;;;;;2069311;28;20853;-58
2021/12/28 04:24:01;;;;;;;11.50;10.30;;;;;;;;;;2082588;28;20191;-56
2021/12/28 04:25:02;;;;;;;12.77;9.73;;;;;;;;;;2082296;28;20184;-58
2021/12/28 04:26:03;;;;;;;10.37;8.83;;;;;;;;;;2082460;28;20176;-59
2021/12/28 04:27:04;;;;;;;14.53;10.60;;;;;;;;;;2082207;28;20172;-60
2021/12/28 04:28:04;;;;;;;11.97;10.23;;;;;;;;;;2082445;28;20625;-61
2021/12/28 04:29:04;;;;;;;13.03;10.10;;;;;;;;;;2079714;28;20187;-58
2021/12/28 04:30:06;;;;;;;11.97;10.47;;;;;;;;;;2082436;28;20200;-58
2021/12/28 04:31:06;;;;;;;13.77;10.03;;;;;;;;;;2082329;28;20237;-59
2021/12/28 04:32:07;;;;;;;10.57;9.47;;;;;;;;;;2082332;28;20230;-59
2021/12/28 04:33:08;;;;;;;12.50;9.87;;;;;;;;;;2082270;28;20677;-59
2021/12/28 04:34:08;;;;;;;15.23;9.80;;;;;;;;;;2074044;28;20169;-64
2021/12/28 04:35:09;;;;;;;15.33;10.43;;;;;;;;;;2082319;28;20176;-59
2021/12/28 04:36:11;;;;;;;12.10;10.00;;;;;;;;;;2083077;28;20172;-61
2021/12/28 04:37:12;;;;;;;11.90;9.60;;;;;;;;;;2083139;28;20187;-59
2021/12/28 04:38:12;;;;;;;14.17;11.40;;;;;;;;;;2082786;28;20204;-59
2021/12/28 04:39:13;;;;;;;11.53;10.17;;;;;;;;;;2081921;28;20172;-61
2021/12/28 04:40:13;;;;;;;14.47;11.10;;;;;;;;;;2082002;28;20686;-58
2021/12/28 04:41:13;;;;;;;16.43;11.07;;;;;;;;;;2082716;28;20164;-57
2021/12/28 04:42:14;;;;;;;13.27;10.43;;;;;;;;;;2082016;28;20173;-55
2021/12/28 04:43:15;;;;;;;18.93;10.10;;;;;;;;;;2081249;28;20311;-56
2021/12/28 04:44:22;;;;;;;11.60;10.23;;;;;;;;;;2082037;28;20703;-56
2021/12/28 04:45:22;;;;;;;13.40;10.07;;;;;;;;;;2080919;28;20184;-57
2021/12/28 04:46:23;;;;;;;12.37;9.70;;;;;;;;;;2073067;28;20260;-61
2021/12/28 04:47:23;;;;;;;11.00;9.90;;;;;;;;;;2072551;28;20641;-58
2021/12/28 04:48:23;;;;;;;11.87;10.10;;;;;;;;;;2081633;28;20193;-58
2021/12/28 04:49:26;;;;;;;11.63;10.37;;;;;;;;;;2061611;28;20174;-57
2021/12/28 04:50:26;;;;;;;14.77;10.03;;;;;;;;;;2065862;28;20265;-56
2021/12/28 04:51:27;;;;;;;13.43;9.80;;;;;;;;;;2081854;28;20544;-56
2021/12/28 04:52:30;;;;;;;12.63;10.23;;;;;;;;;;2076421;28;20201;-58
2021/12/28 04:53:30;;;;;;;12.20;9.40;;;;;;;;;;2081818;28;20528;-59
2021/12/28 04:54:31;;;;;;;13.60;9.37;;;;;;;;;;2068899;28;20192;-57
2021/12/28 04:55:31;;;;;;;15.33;9.43;;;;;;;;;;2072746;28;20185;-58
2021/12/28 04:56:31;;;;;;;11.13;9.93;;;;;;;;;;2081194;28;20702;-58
2021/12/28 04:57:31;;;;;;;10.33;8.83;;;;;;;;;;2078683;28;20334;-58
2021/12/28 04:58:32;;;;;;;12.07;9.17;;;;;;;;;;2080822;28;20165;-59
2021/12/28 04:59:33;;;;;;;11.03;9.13;;;;;;;;;;2079213;28;20608;-58
2021/12/28 05:00:33;;;;;;;11.73;8.70;;;;;;;;;;2081796;28;20173;-60
2021/12/28 05:01:36;;;;;;;10.80;9.50;;;;;;;;;;2077585;28;20204;-59
2021/12/28 05:02:36;;;;;;;9.97;8.97;;;;;;;;;;2081491;28;20204;-59
2021/12/28 05:03:37;;;;;;;11.37;8.93;;;;;;;;;;2081693;28;20188;-57
2021/12/28 05:04:37;;;;;;;12.63;9.33;;;;;;;;;;2081880;28;20181;-58
2021/12/28 05:05:39;;;;;;;12.37;10.10;;;;;;;;;;2078573;28;20195;-60
2021/12/28 05:06:40;;;;;;;12.20;10.57;;;;;;;;;;2081474;28;20179;-59
2021/12/28 05:07:41;;;;;;;13.73;10.70;;;;;;;;;;2069553;28;20203;-59
2021/12/28 05:08:41;;;;;;;13.30;10.60;;;;;;;;;;2073331;28;20180;-57
2021/12/28 05:09:41;;;;;;;16.53;11.27;;;;;;;;;;2074777;28;20581;-60
2021/12/28 05:10:42;;;;;;;14.07;10.73;;;;;;;;;;2077544;28;20184;-60
2021/12/28 05:11:42;;;;;;;16.23;10.97;;;;;;;;;;2064276;28;20257;-57
2021/12/28 05:12:43;;;;;;;12.73;10.87;;;;;;;;;;2058466;28;20174;-60
2021/12/28 05:13:44;;;;;;;18.23;12.03;;;;;;;;;;2074771;28;20255;-58
2021/12/28 05:14:45;;;;;;;15.73;12.00;;;;;;;;;;2080114;28;20247;-60
2021/12/28 05:15:46;;;;;;;16.07;12.00;;;;;;;;;;2081622;28;20611;-58
2021/12/28 05:16:46;;;;;;;17.03;11.63;;;;;;;;;;2081387;28;20172;-59
2021/12/28 05:17:46;;;;;;;18.43;11.83;;;;;;;;;;2084919;28;20651;-60
2021/12/28 05:18:47;;;;;;;16.87;12.33;;;;;;;;;;2084228;28;20208;-59
2021/12/28 05:19:47;;;;;;;16.13;12.23;;;;;;;;;;2084672;28;20219;-58
2021/12/28 05:20:47;;;;;;;18.23;12.70;;;;;;;;;;2083658;28;20671;-60
2021/12/28 05:21:47;;;;;;;14.80;11.53;;;;;;;;;;2084244;28;20177;-59
2021/12/28 05:22:48;;;;;;;16.53;11.67;;;;;;;;;;2083284;28;20176;-60
2021/12/28 05:23:48;;;;;;;16.17;11.97;;;;;;;;;;2083881;28;20664;-61
2021/12/28 05:24:48;;;;;;;16.07;11.97;;;;;;;;;;2078413;28;20184;-59
2021/12/28 05:25:48;;;;;;;18.60;11.73;;;;;;;;;;2075501;28;20181;-59
2021/12/28 05:26:49;;;;;;;18.57;11.77;;;;;;;;;;2074093;28;20180;-59
2021/12/28 05:27:50;;;;;;;17.43;11.30;;;;;;;;;;2084199;28;20204;-57
2021/12/28 05:28:50;;;;;;;15.63;11.10;;;;;;;;;;2082314;28;20184;-59
2021/12/28 05:29:50;;;;;;;17.73;11.03;;;;;;;;;;2083561;28;20212;-59
2021/12/28 05:30:51;;;;;;;17.73;11.97;;;;;;;;;;2083146;28;20180;-58
2021/12/28 05:31:51;;;;;;;13.40;10.67;;;;;;;;;;2083549;28;20199;-60
2021/12/28 05:32:52;;;;;;;14.13;10.57;;;;;;;;;;2083164;28;20192;-60
2021/12/28 05:33:52;;;;;;;14.17;11.40;;;;;;;;;;2082522;28;20183;-60
2021/12/28 05:34:52;;;;;;;15.73;10.57;;;;;;;;;;2082964;28;20176;-57
2021/12/28 05:35:53;;;;;;;12.03;10.57;;;;;;;;;;2083779;28;20869;-59
2021/12/28 05:36:53;;;;;;;15.95;10.77;;;;;;;;;;2083667;28;20164;-58
2021/12/28 05:37:53;;;;;;;13.93;9.97;;;;;;;;;;2082315;28;20243;-60
2021/12/28 05:38:54;;;;;;;17.57;10.17;;;;;;;;;;2083214;28;20200;-60
2021/12/28 05:39:54;;;;;;;15.03;10.17;;;;;;;;;;2083990;28;20605;-59
2021/12/28 05:40:54;;;;;;;14.17;9.87;;;;;;;;;;2074519;28;20736;-59
2021/12/28 05:41:54;;;;;;;13.03;10.03;;;;;;;;;;2072450;28;20177;-59
2021/12/28 05:42:55;;;;;;;16.33;10.60;;;;;;;;;;2082044;28;20180;-57
2021/12/28 05:43:55;;;;;;;13.73;9.88;;;;;;;;;;2065562;28;20181;-59
2021/12/28 05:44:55;;;;;;;17.20;10.90;;;;;;;;;;2068796;28;20177;-59
2021/12/28 05:45:55;;;;;;;12.83;9.50;;;;;;;;;;2080866;28;20176;-58
2021/12/28 05:46:56;;;;;;;14.23;10.50;;;;;;;;;;2082152;28;20634;-58
2021/12/28 05:47:57;;;;;;;13.03;9.67;;;;;;;;;;2081129;28;20204;-58
2021/12/28 05:48:57;;;;;;;12.63;9.60;;;;;;;;;;2080321;28;20195;-59
2021/12/28 05:49:57;;;;;;;14.37;10.27;;;;;;;;;;2080438;28;20203;-59
2021/12/28 05:50:57;;;;;;;13.37;10.23;;;;;;;;;;2081926;28;20204;-58
2021/12/28 05:51:58;;;;;;;11.77;9.37;;;;;;;;;;2081655;28;20191;-59
2021/12/28 05:52:58;;;;;;;15.27;13.67;;;;;;;;;;2079068;28;20169;-59
2021/12/28 05:53:58;;;;;;;15.00;13.03;;;;;;;;;;2081475;28;20346;-56
2021/12/28 05:54:58;;;;;;;20.27;15.80;;;;;;;;;;2078494;28;20650;-57
2021/12/28 05:55:59;;;;;;;18.35;16.45;;;;;;;;;;2081406;28;20165;-57
2021/12/28 05:56:59;;;;;;;16.00;13.85;;;;;;;;;;2081186;28;20172;-58
2021/12/28 05:57:59;;;;;;;14.10;12.60;;;;;;;;;;2081137;28;20553;-63